Time;durP1;ratioP1;P1;durP2;ratioP2;P2;SDS_P1;SDS_P2;PMS_P1;PMS_P2;Temp;Humidity;BMP_temperature;BMP_pressure;BME280_temperature;BME280_humidity;BME280_pressure;Samples;Min_cycle;Max_cycle;Signal;HPM_P1;HPM_P2
2024/02/13 00:01:54;;;;;;;1.33;0.50;;;2.60;99.90;;;;;;6279620;22;20432;-89
2024/02/13 00:04:20;;;;;;;1.85;0.40;;;2.60;99.90;;;;;;6279379;22;20034;-89
2024/02/13 00:06:46;;;;;;;1.55;0.40;;;2.60;99.90;;;;;;6305732;22;20026;-88
2024/02/13 00:09:16;;;;;;;1.50;0.40;;;2.60;99.90;;;;;;6305347;22;20034;-89
2024/02/13 00:11:41;;;;;;;1.30;0.40;;;2.70;99.90;;;;;;6279666;22;20018;-88
2024/02/13 00:14:07;;;;;;;1.30;0.40;;;2.70;99.90;;;;;;6331855;22;19999;-89
2024/02/13 00:16:38;;;;;;;1.38;0.30;;;2.60;99.90;;;;;;6279049;22;20041;-89
2024/02/13 00:19:07;;;;;;;1.67;0.38;;;2.50;99.90;;;;;;6306888;22;20034;-89
2024/02/13 00:21:35;;;;;;;2.57;0.40;;;2.60;99.90;;;;;;6279445;22;20011;-88
2024/02/13 00:24:01;;;;;;;0.88;0.30;;;2.70;99.90;;;;;;6279386;22;20018;-88
2024/02/13 00:26:26;;;;;;;2.33;0.40;;;2.70;99.90;;;;;;6304730;22;19999;-89
2024/02/13 00:28:52;;;;;;;2.10;0.40;;;2.60;99.90;;;;;;6305849;22;20014;-89
2024/02/13 00:31:20;;;;;;;2.08;0.40;;;2.70;99.90;;;;;;6305466;22;20325;-88
2024/02/13 00:33:48;;;;;;;2.85;0.40;;;2.80;99.90;;;;;;6279619;22;20023;-89
2024/02/13 00:36:15;;;;;;;3.28;0.50;;;2.90;99.90;;;;;;6305560;22;20006;-89
2024/02/13 00:38:43;;;;;;;1.67;0.40;;;2.80;99.90;;;;;;6304334;22;20007;-89
2024/02/13 00:41:09;;;;;;;2.45;0.40;;;2.90;99.90;;;;;;6279040;22;20008;-88
2024/02/13 00:43:36;;;;;;;1.50;0.60;;;2.80;99.90;;;;;;6304632;22;20018;-89
2024/02/13 00:46:01;;;;;;;2.50;0.50;;;2.80;99.90;;;;;;6305027;22;20007;-89
2024/02/13 00:48:30;;;;;;;2.95;0.70;;;3.00;99.90;;;;;;6278746;22;20018;-88
2024/02/13 00:50:56;;;;;;;2.83;1.13;;;3.00;99.90;;;;;;6279446;22;20035;-88
2024/02/13 00:53:22;;;;;;;2.70;1.00;;;3.00;99.90;;;;;;6304203;22;20022;-89
2024/02/13 00:55:49;;;;;;;1.73;0.60;;;3.10;99.90;;;;;;6304843;22;20460;-89
2024/02/13 00:58:16;;;;;;;5.15;0.98;;;2.90;99.90;;;;;;6278460;22;20075;-88
2024/02/13 01:00:42;;;;;;;3.08;1.00;;;3.00;99.90;;;;;;6278905;22;20003;-89
2024/02/13 01:03:10;;;;;;;4.05;1.00;;;2.90;99.90;;;;;;6279241;22;20011;-89
2024/02/13 01:05:40;;;;;;;3.28;1.23;;;3.00;99.90;;;;;;6278889;22;20053;-89
2024/02/13 01:08:07;;;;;;;3.15;1.20;;;3.00;99.90;;;;;;6304747;22;20061;-89
2024/02/13 01:10:33;;;;;;;4.03;1.15;;;2.90;99.90;;;;;;6278980;22;20014;-88
2024/02/13 01:12:59;;;;;;;3.00;1.00;;;2.80;99.90;;;;;;6304825;22;20038;-89
2024/02/13 01:15:26;;;;;;;4.22;1.23;;;2.80;99.90;;;;;;6304542;22;20388;-89
2024/02/13 01:17:54;;;;;;;3.42;1.50;;;2.90;99.90;;;;;;6278788;22;20047;-88
2024/02/13 01:20:20;;;;;;;2.70;0.82;;;2.90;99.90;;;;;;6278821;22;20004;-88
2024/02/13 01:22:46;;;;;;;3.40;1.80;;;2.90;99.90;;;;;;6304512;22;20343;-88
2024/02/13 01:25:14;;;;;;;4.53;1.60;;;2.90;99.90;;;;;;6278596;22;20008;-89
2024/02/13 01:27:40;;;;;;;4.00;2.00;;;2.80;99.90;;;;;;6304938;22;20075;-88
2024/02/13 01:30:09;;;;;;;4.72;2.25;;;2.80;99.90;;;;;;6278936;22;20014;-88
2024/02/13 01:32:37;;;;;;;5.50;2.07;;;2.80;99.90;;;;;;6304552;22;20019;-88
2024/02/13 01:35:03;;;;;;;9.18;2.83;;;2.90;99.90;;;;;;6304847;22;20059;-88
2024/02/13 01:37:29;;;;;;;5.60;3.10;;;2.90;99.90;;;;;;6277763;22;20090;-88
2024/02/13 01:39:55;;;;;;;4.55;2.25;;;2.90;99.90;;;;;;6304788;22;20011;-89
2024/02/13 01:42:21;;;;;;;4.93;2.30;;;2.90;99.90;;;;;;6278687;22;20003;-89
2024/02/13 01:44:46;;;;;;;4.03;1.67;;;2.80;99.90;;;;;;6278491;22;20007;-89
2024/02/13 01:47:12;;;;;;;6.57;3.08;;;2.80;99.90;;;;;;6304377;22;20003;-88
2024/02/13 01:49:40;;;;;;;5.53;2.78;;;2.80;99.90;;;;;;6279130;22;20023;-89
2024/02/13 01:52:06;;;;;;;8.43;4.20;;;2.90;99.90;;;;;;6304252;22;20016;-89
2024/02/13 01:54:32;;;;;;;7.88;4.15;;;3.00;99.90;;;;;;6304032;22;20008;-89
2024/02/13 01:56:59;;;;;;;10.48;4.35;;;3.00;99.90;;;;;;6279235;22;20011;-89
2024/02/13 01:59:25;;;;;;;5.10;3.35;;;2.90;99.90;;;;;;6278573;22;20004;-89
2024/02/13 02:01:53;;;;;;;6.53;4.03;;;2.90;99.90;;;;;;6278707;22;20010;-89
2024/02/13 02:04:19;;;;;;;6.93;4.15;;;2.90;99.90;;;;;;6278536;22;20011;-89
2024/02/13 02:06:45;;;;;;;9.77;5.00;;;3.20;99.90;;;;;;6277901;22;20011;-89
2024/02/13 02:09:11;;;;;;;10.85;5.93;;;3.10;99.90;;;;;;6278914;22;20435;-89
2024/02/13 02:11:37;;;;;;;10.98;6.95;;;3.20;99.90;;;;;;6306510;22;20053;-89
2024/02/13 02:14:03;;;;;;;8.57;4.70;;;3.20;99.90;;;;;;6280691;22;20092;-89
2024/02/13 02:16:28;;;;;;;10.63;5.25;;;3.10;99.90;;;;;;6280279;22;20084;-88
2024/02/13 02:18:55;;;;;;;9.63;6.43;;;3.10;99.90;;;;;;6307697;22;20014;-89
2024/02/13 02:21:21;;;;;;;10.05;5.88;;;3.20;99.90;;;;;;6279831;22;20037;-89
2024/02/13 02:23:47;;;;;;;9.50;4.90;;;3.00;99.90;;;;;;6280206;22;20011;-89
2024/02/13 02:26:13;;;;;;;9.60;5.68;;;3.00;99.90;;;;;;6279809;22;20007;-89
2024/02/13 02:28:39;;;;;;;9.60;5.40;;;3.10;99.90;;;;;;6280154;22;20331;-89
2024/02/13 02:31:05;;;;;;;12.15;5.70;;;3.10;99.90;;;;;;6280664;22;20003;-89
2024/02/13 02:33:31;;;;;;;8.02;5.20;;;3.10;99.90;;;;;;6306044;22;20465;-89
2024/02/13 02:35:57;;;;;;;6.03;3.83;;;3.10;99.90;;;;;;6280400;22;20003;-89
2024/02/13 02:38:23;;;;;;;12.38;5.10;;;3.00;99.90;;;;;;6305748;22;20018;-89
2024/02/13 02:40:49;;;;;;;13.05;5.85;;;3.00;99.90;;;;;;6305942;22;20007;-89
2024/02/13 02:43:15;;;;;;;10.52;4.60;;;3.10;99.90;;;;;;6305394;22;20023;-89
2024/02/13 02:45:41;;;;;;;7.97;4.70;;;3.10;99.90;;;;;;6305802;22;20004;-89
2024/02/13 02:48:07;;;;;;;12.60;6.68;;;3.10;99.90;;;;;;6279713;22;20018;-90
2024/02/13 02:50:34;;;;;;;8.10;5.30;;;3.20;99.90;;;;;;6305377;22;20447;-89
2024/02/13 02:53:00;;;;;;;6.70;4.22;;;3.10;99.90;;;;;;6305964;22;20443;-89
2024/02/13 02:55:26;;;;;;;8.13;4.78;;;2.90;99.90;;;;;;6280082;22;20003;-89
2024/02/13 02:57:52;;;;;;;8.55;5.15;;;2.90;99.90;;;;;;6254212;22;20423;-89
2024/02/13 03:00:19;;;;;;;8.85;4.72;;;3.00;99.90;;;;;;6279320;22;20014;-89
2024/02/13 03:02:46;;;;;;;8.57;5.28;;;3.20;99.90;;;;;;6279868;22;20136;-89
2024/02/13 03:05:12;;;;;;;7.32;4.60;;;3.10;99.90;;;;;;6305805;22;20004;-89
2024/02/13 03:07:38;;;;;;;6.82;4.38;;;3.10;99.90;;;;;;6279987;22;20030;-89
2024/02/13 03:10:08;;;;;;;9.52;5.97;;;3.10;99.90;;;;;;6279567;22;20061;-89
2024/02/13 03:12:35;;;;;;;8.15;5.45;;;3.10;99.90;;;;;;6279818;22;20015;-89
2024/02/13 03:15:01;;;;;;;7.35;4.40;;;3.10;99.90;;;;;;6280020;22;20355;-90
2024/02/13 03:17:26;;;;;;;7.30;4.35;;;3.20;99.90;;;;;;6304748;22;20026;-89
2024/02/13 03:19:52;;;;;;;6.30;3.72;;;3.00;99.90;;;;;;6279498;22;20099;-90
2024/02/13 03:22:19;;;;;;;9.32;4.47;;;3.00;99.90;;;;;;6304998;22;20140;-89
2024/02/13 03:24:45;;;;;;;6.07;4.40;;;3.00;99.90;;;;;;6305569;22;19996;-89
2024/02/13 03:27:11;;;;;;;8.07;4.90;;;3.10;99.90;;;;;;6253877;22;20011;-88
2024/02/13 03:29:37;;;;;;;6.10;3.83;;;3.20;99.90;;;;;;6279304;22;20478;-90
2024/02/13 03:32:04;;;;;;;7.13;4.55;;;3.20;99.90;;;;;;6279448;22;20008;-89
2024/02/13 03:34:30;;;;;;;7.32;4.30;;;3.20;99.90;;;;;;6278805;22;20221;-89
2024/02/13 03:36:56;;;;;;;5.75;3.80;;;3.20;99.90;;;;;;6279407;22;20003;-89
2024/02/13 03:39:23;;;;;;;10.32;4.35;;;3.20;99.90;;;;;;6279095;22;20000;-90
2024/02/13 03:41:49;;;;;;;9.07;5.30;;;3.20;99.90;;;;;;6279857;22;20015;-89
2024/02/13 03:44:15;;;;;;;9.70;5.80;;;3.20;99.90;;;;;;6278756;22;20008;-91
2024/02/13 03:46:42;;;;;;;10.85;5.13;;;3.30;99.90;;;;;;6279124;22;20011;-90
2024/02/13 03:49:08;;;;;;;6.65;4.88;;;3.30;99.90;;;;;;6306480;22;20011;-90
2024/02/13 03:51:38;;;;;;;7.32;4.97;;;3.20;99.90;;;;;;6304649;22;20032;-89
2024/02/13 03:54:05;;;;;;;7.03;4.20;;;3.20;99.90;;;;;;6305328;22;20049;-89
2024/02/13 03:56:31;;;;;;;7.70;4.22;;;3.30;99.90;;;;;;6304214;22;20462;-90
2024/02/13 03:58:56;;;;;;;8.98;5.22;;;3.30;99.90;;;;;;6304965;22;20011;-89
2024/02/13 04:01:22;;;;;;;11.95;6.40;;;3.40;99.90;;;;;;6304265;22;20050;-89
2024/02/13 04:03:48;;;;;;;11.23;6.53;;;3.30;99.90;;;;;;6306439;22;20029;-89
2024/02/13 04:06:13;;;;;;;9.48;6.00;;;3.30;99.90;;;;;;6304789;22;20010;-89
2024/02/13 04:08:43;;;;;;;11.20;6.07;;;3.30;99.90;;;;;;6279040;22;20025;-89
2024/02/13 04:11:09;;;;;;;8.98;5.95;;;3.30;99.90;;;;;;6278778;22;20057;-89
2024/02/13 04:13:34;;;;;;;6.43;3.85;;;3.20;99.90;;;;;;6304613;22;20022;-90
2024/02/13 04:16:01;;;;;;;10.05;5.63;;;3.10;99.90;;;;;;6304263;22;20136;-89
2024/02/13 04:18:26;;;;;;;8.68;5.60;;;3.10;99.90;;;;;;6304397;22;20015;-90
2024/02/13 04:20:52;;;;;;;7.93;5.53;;;3.10;99.90;;;;;;6278624;22;20010;-90
2024/02/13 04:23:17;;;;;;;9.73;5.50;;;3.20;99.90;;;;;;6278746;22;20335;-90
2024/02/13 04:25:43;;;;;;;7.38;4.93;;;3.10;99.90;;;;;;6278597;22;20334;-90
2024/02/13 04:28:09;;;;;;;9.82;5.57;;;3.20;99.90;;;;;;6278952;22;20451;-90
2024/02/13 04:30:40;;;;;;;9.75;5.50;;;3.20;99.90;;;;;;6278758;22;20324;-90
2024/02/13 04:33:08;;;;;;;8.13;4.72;;;3.00;99.90;;;;;;6304174;22;20018;-90
2024/02/13 04:35:34;;;;;;;7.53;4.35;;;3.10;99.90;;;;;;6278248;22;20132;-89
2024/02/13 04:38:00;;;;;;;6.72;4.18;;;3.10;99.90;;;;;;6278854;22;20550;-90
2024/02/13 04:40:26;;;;;;;9.40;6.18;;;3.10;99.90;;;;;;6304094;22;20019;-90
2024/02/13 04:42:52;;;;;;;11.35;6.57;;;3.20;99.90;;;;;;6278856;22;20011;-90
2024/02/13 04:45:17;;;;;;;6.07;3.97;;;3.20;99.90;;;;;;6278046;22;20007;-90
2024/02/13 04:47:46;;;;;;;8.52;4.65;;;3.10;99.90;;;;;;6304477;22;20014;-90
2024/02/13 04:50:13;;;;;;;7.88;4.32;;;3.10;99.90;;;;;;6278880;22;20015;-89
2024/02/13 04:52:39;;;;;;;9.30;6.45;;;3.20;99.90;;;;;;6278525;22;20451;-90
2024/02/13 04:55:05;;;;;;;8.95;6.10;;;3.20;99.90;;;;;;6278293;22;20096;-89
2024/02/13 04:57:33;;;;;;;11.43;6.72;;;3.20;99.90;;;;;;6303041;22;20076;-90
2024/02/13 05:00:02;;;;;;;10.35;4.68;;;3.10;99.90;;;;;;6304094;22;20007;-90
2024/02/13 05:02:29;;;;;;;9.48;5.82;;;3.00;99.90;;;;;;6278631;22;20070;-90
2024/02/13 05:07:43;;;;;;;6.55;4.22;;;3.10;99.90;;;;;;6304376;22;20012;-90
2024/02/13 05:10:09;;;;;;;7.10;3.35;;;3.00;99.90;;;;;;6278416;22;20077;-89
2024/02/13 05:12:35;;;;;;;8.95;5.05;;;3.00;99.90;;;;;;6278468;22;20019;-90
2024/02/13 05:15:02;;;;;;;10.38;5.40;;;3.10;99.90;;;;;;6303905;22;20161;-91
2024/02/13 05:17:28;;;;;;;7.85;5.13;;;3.10;99.90;;;;;;6278220;22;20007;-90
2024/02/13 05:19:54;;;;;;;16.83;7.65;;;3.10;99.90;;;;;;6278209;22;20050;-90
2024/02/13 05:22:20;;;;;;;10.70;5.53;;;3.20;99.90;;;;;;6278016;22;20007;-89
2024/02/13 05:24:46;;;;;;;11.27;7.60;;;3.10;99.90;;;;;;6304467;22;19999;-90
2024/02/13 05:27:13;;;;;;;11.20;6.50;;;3.30;99.90;;;;;;6277867;22;20112;-90
2024/02/13 05:29:40;;;;;;;10.25;6.00;;;3.20;99.90;;;;;;6305502;22;20003;-88
2024/02/13 05:32:09;;;;;;;10.73;7.10;;;3.10;99.90;;;;;;6278166;22;20023;-89
2024/02/13 05:34:35;;;;;;;9.73;6.47;;;3.10;99.90;;;;;;6304396;22;20010;-91
2024/02/13 05:37:02;;;;;;;11.52;6.50;;;3.20;99.90;;;;;;6277648;22;20344;-90
2024/02/13 05:39:28;;;;;;;8.93;5.38;;;3.20;99.90;;;;;;6303560;22;20094;-90
2024/02/13 05:41:54;;;;;;;8.65;5.85;;;3.10;99.90;;;;;;6278202;22;20011;-90
2024/02/13 05:44:21;;;;;;;9.13;5.32;;;3.10;99.90;;;;;;6304016;22;20006;-90
2024/02/13 05:46:47;;;;;;;7.47;4.90;;;3.10;99.90;;;;;;6306354;22;20430;-90
2024/02/13 05:49:13;;;;;;;11.02;6.35;;;3.10;99.90;;;;;;6279480;22;20098;-90
2024/02/13 05:51:38;;;;;;;12.25;6.60;;;3.20;99.90;;;;;;6280533;22;20015;-90
2024/02/13 05:54:05;;;;;;;8.07;5.68;;;3.20;99.90;;;;;;6280556;22;20261;-90
2024/02/13 05:56:35;;;;;;;8.88;6.05;;;3.20;99.90;;;;;;6280017;22;20064;-90
2024/02/13 05:59:03;;;;;;;;;;;3.20;99.90;;;;;;6280733;22;20003;-90
2024/02/13 06:01:29;;;;;;;8.82;4.50;;;3.20;99.90;;;;;;6307399;22;19899;-89
2024/02/13 06:03:57;;;;;;;7.45;4.40;;;3.10;99.90;;;;;;6306088;22;20018;-89
2024/02/13 06:06:24;;;;;;;10.23;6.10;;;3.10;99.90;;;;;;6305673;22;20082;-90
2024/02/13 06:08:52;;;;;;;10.23;6.85;;;3.20;99.90;;;;;;6280262;22;20000;-89
2024/02/13 06:11:18;;;;;;;8.73;6.82;;;3.10;99.90;;;;;;6279819;22;20011;-90
2024/02/13 06:13:46;;;;;;;13.40;7.40;;;3.20;99.90;;;;;;6307199;22;20061;-91
2024/02/13 06:16:15;;;;;;;7.95;5.63;;;3.20;99.90;;;;;;6277339;22;20439;-93
2024/02/13 06:18:41;;;;;;;13.15;6.85;;;3.20;99.90;;;;;;6305852;22;20011;-92
2024/02/13 06:21:07;;;;;;;9.90;6.25;;;3.10;99.90;;;;;;6280215;22;20003;-92
2024/02/13 06:23:32;;;;;;;8.57;5.93;;;3.20;99.90;;;;;;6279360;22;20003;-92
2024/02/13 06:25:58;;;;;;;9.35;6.05;;;3.20;99.90;;;;;;6279755;22;20007;-93
2024/02/13 06:28:24;;;;;;;11.57;7.07;;;3.30;99.90;;;;;;6279295;22;20057;-93
2024/02/13 06:30:51;;;;;;;12.48;7.28;;;3.30;99.90;;;;;;6279424;22;20012;-92
2024/02/13 06:33:17;;;;;;;12.32;7.72;;;3.30;99.90;;;;;;6279386;22;20504;-93
2024/02/13 06:35:43;;;;;;;12.25;6.85;;;3.30;99.90;;;;;;6305746;22;20007;-92
2024/02/13 06:38:08;;;;;;;10.50;6.15;;;3.20;99.90;;;;;;6279608;22;20008;-93
2024/02/13 06:40:34;;;;;;;9.38;5.75;;;3.30;99.90;;;;;;6279388;22;20064;-93
2024/02/13 06:43:01;;;;;;;9.73;6.10;;;3.20;99.90;;;;;;6279572;22;20011;-87
2024/02/13 06:45:43;;;;;;;10.20;6.32;;;3.30;99.90;;;;;;6276851;22;20011;-88
2024/02/13 06:48:24;;;;;;;12.63;7.05;;;3.30;99.90;;;;;;6299021;22;20101;-89
2024/02/13 06:50:50;;;;;;;8.57;4.35;;;3.30;99.90;;;;;;6290253;22;20034;-88
2024/02/13 06:53:16;;;;;;;8.88;6.13;;;3.30;99.90;;;;;;6278596;22;20038;-89
2024/02/13 06:55:49;;;;;;;9.80;6.80;;;3.40;99.90;;;;;;6279024;22;20078;-89
2024/02/13 06:58:17;;;;;;;10.73;6.57;;;3.30;99.90;;;;;;6277734;22;20507;-88
2024/02/13 07:00:43;;;;;;;10.20;5.82;;;3.30;99.90;;;;;;6277656;22;20000;-88
2024/02/13 07:03:11;;;;;;;12.35;5.57;;;3.30;99.90;;;;;;6278493;22;20015;-89
2024/02/13 07:05:37;;;;;;;9.57;5.82;;;3.40;99.90;;;;;;6278352;22;20088;-88
2024/02/13 07:08:03;;;;;;;10.35;7.38;;;3.40;99.90;;;;;;6277987;22;20050;-88
2024/02/13 07:10:29;;;;;;;12.30;6.28;;;3.40;99.90;;;;;;6277910;22;20453;-88
2024/02/13 07:12:58;;;;;;;9.82;6.80;;;3.40;99.90;;;;;;6278530;22;20007;-88
2024/02/13 07:15:26;;;;;;;8.60;5.13;;;3.50;99.90;;;;;;6277114;22;20009;-88
2024/02/13 07:17:52;;;;;;;10.95;6.05;;;3.50;99.90;;;;;;6277985;22;20340;-88
2024/02/13 07:20:28;;;;;;;8.77;4.85;;;3.50;99.90;;;;;;6277498;22;20007;-87
2024/02/13 07:22:56;;;;;;;8.18;5.90;;;3.50;99.90;;;;;;6277854;22;20356;-87
2024/02/13 07:25:34;;;;;;;;;;;;;;;;;;;;;
2024/02/13 07:28:03;;;;;;;8.35;4.90;;;3.40;99.90;;;;;;6308882;22;20014;-88
2024/02/13 07:30:32;;;;;;;7.47;4.63;;;3.50;99.90;;;;;;6278213;22;20010;-89
2024/02/13 07:32:58;;;;;;;7.63;4.72;;;3.50;99.90;;;;;;6277750;22;20019;-88
2024/02/13 07:35:35;;;;;;;7.30;3.95;;;3.60;99.90;;;;;;6284835;22;20019;-89
2024/02/13 09:22:44;;;;;;;;;;;;;;;;;;;;;
2024/02/13 09:29:01;;;;;;;;;;;;;;;;;;;;;
2024/02/13 09:38:42;;;;;;;;;;;;;;;;;;;;;
2024/02/13 09:41:53;;;;;;;;;;;;;;;;;;;;;
2024/02/13 09:45:29;;;;;;;;;;;;;;;;;;;;;
2024/02/13 09:48:49;;;;;;;6.72;1.40;;;6.60;99.90;;;;;;6302555;22;20010;-88
2024/02/13 09:51:32;;;;;;;3.33;0.80;;;6.70;99.90;;;;;;6281325;22;20015;-89
2024/02/13 09:57:21;;;;;;;4.28;0.90;;;7.00;99.90;;;;;;6261846;22;20102;-88
2024/02/13 10:00:01;;;;;;;2.97;0.70;;;7.10;99.90;;;;;;6281231;22;20006;-88
2024/02/13 10:02:31;;;;;;;7.95;1.35;;;7.00;99.90;;;;;;6253409;22;20033;-88
2024/02/13 10:04:59;;;;;;;6.63;0.82;;;7.10;99.90;;;;;;6254618;22;20394;-88
2024/02/13 10:08:07;;;;;;;;;;;;;;;;;;;;;
2024/02/13 10:12:03;;;;;;;;;;;;;;;;;;;;;
2024/02/13 11:05:26;;;;;;;;;;;;;;;;;;;;;
2024/02/13 11:50:19;;;;;;;6.07;0.75;;;9.90;99.90;;;;;;6144617;22;20015;-88
2024/02/13 11:53:04;;;;;;;2.75;0.50;;;9.90;99.90;;;;;;6220908;22;20473;-88
2024/02/13 11:55:49;;;;;;;3.78;0.68;;;10.00;99.90;;;;;;6226072;22;20011;-87
2024/02/13 11:58:52;;;;;;;2.28;0.40;;;10.10;99.90;;;;;;6221159;22;20082;-88
2024/02/13 12:01:43;;;;;;;2.55;0.50;;;10.20;99.90;;;;;;6237376;22;20003;-89
2024/02/13 12:05:22;;;;;;;;;;;;;;;;;;;;;
2024/02/13 12:08:42;;;;;;;;;;;;;;;;;;;;;
2024/02/13 12:16:38;;;;;;;;;;;;;;;;;;;;;
2024/02/13 12:23:56;;;;;;;;;;;;;;;;;;;;;
2024/02/13 12:27:33;;;;;;;;;;;;;;;;;;;;;
2024/02/13 12:30:57;;;;;;;3.50;0.40;;;9.90;99.90;;;;;;6096221;22;20025;-88
2024/02/13 12:34:33;;;;;;;;;;;;;;;;;;;;;
2024/02/13 12:45:19;;;;;;;;;;;;;;;;;;;;;
2024/02/13 12:48:27;;;;;;;;;;;;;;;;;;;;;
2024/02/13 12:51:55;;;;;;;;;;;;;;;;;;;;;
2024/02/13 13:29:41;;;;;;;1.70;0.30;;;9.80;99.90;;;;;;5782304;24;20029;-88
2024/02/13 14:01:15;;;;;;;;;;;;;;;;;;;;;
2024/02/13 14:12:25;;;;;;;;;;;;;;;;;;;;;
2024/02/13 14:15:46;;;;;;;;;;;;;;;;;;;;;
2024/02/13 14:18:57;;;;;;;;;;;;;;;;;;;;;
2024/02/13 14:22:14;;;;;;;;;;;;;;;;;;;;;
2024/02/13 14:25:51;;;;;;;2.72;0.30;;;9.40;99.90;;;;;;6273415;22;20015;-89
2024/02/13 14:29:15;;;;;;;;;;;;;;;;;;;;;
2024/02/13 14:32:26;;;;;;;;;;;;;;;;;;;;;
2024/02/13 14:35:46;;;;;;;;;;;;;;;;;;;;;
2024/02/13 14:38:35;;;;;;;1.05;0.20;;;9.60;99.90;;;;;;6253057;22;20011;-88
2024/02/13 14:45:36;;;;;;;;;;;;;;;;;;;;;
2024/02/13 14:57:01;;;;;;;;;;;;;;;;;;;;;
2024/02/13 15:03:59;;;;;;;2.22;0.10;;;9.50;99.90;;;;;;6219453;22;20046;-89
2024/02/13 15:07:08;;;;;;;1.00;0.10;;;9.50;99.90;;;;;;6256299;22;20014;-90
2024/02/13 15:10:44;;;;;;;1.27;0.15;;;9.40;99.90;;;;;;6253577;22;20525;-89
2024/02/13 15:13:38;;;;;;;;;;;;;;;;;;;;;
2024/02/13 15:16:05;;;;;;;2.03;0.10;;;9.40;99.90;;;;;;6235178;22;20034;-88
2024/02/13 15:19:25;;;;;;;1.90;0.10;;;9.30;99.90;;;;;;6226574;22;20011;-89
2024/02/13 15:22:51;;;;;;;;;;;;;;;;;;;;;
2024/02/13 15:25:38;;;;;;;1.33;0.10;;;9.30;99.90;;;;;;6280922;22;20018;-89
2024/02/13 15:28:30;;;;;;;;;;;;;;;;;;;;;
2024/02/13 15:35:39;;;;;;;;;;;;;;;;;;;;;
2024/02/13 15:52:39;;;;;;;;;;;;;;;;;;;;;
2024/02/13 15:55:56;;;;;;;1.50;0.20;;;8.90;99.90;;;;;;6249485;22;20015;-88
2024/02/13 16:10:37;;;;;;;0.82;0.10;;;8.70;99.90;;;;;;6190427;23;20005;-88
2024/02/13 16:13:08;;;;;;;1.08;0.10;;;8.60;99.90;;;;;;6150294;23;20091;-87
2024/02/13 16:15:34;;;;;;;0.82;0.10;;;8.60;99.90;;;;;;6158294;23;20012;-88
2024/02/13 16:18:00;;;;;;;0.50;0.10;;;8.60;99.90;;;;;;6258283;22;20102;-88
2024/02/13 16:20:46;;;;;;;3.85;0.20;;;8.60;99.90;;;;;;6249701;22;20016;-88
2024/02/13 16:23:15;;;;;;;2.20;0.30;;;8.60;99.90;;;;;;6276274;22;20066;-88
2024/02/13 16:25:45;;;;;;;1.02;0.20;;;8.60;99.90;;;;;;6251738;22;20011;-89
2024/02/13 16:28:20;;;;;;;1.85;0.20;;;8.60;99.90;;;;;;6253091;22;20102;-88
2024/02/13 16:30:53;;;;;;;1.75;0.20;;;8.50;99.90;;;;;;6251298;22;20035;-88
2024/02/13 16:33:26;;;;;;;1.73;0.20;;;8.50;99.90;;;;;;6251659;22;20015;-87
2024/02/13 16:36:05;;;;;;;1.30;0.20;;;8.50;99.90;;;;;;6278772;22;20114;-86
2024/02/13 16:38:34;;;;;;;1.23;0.20;;;8.40;99.90;;;;;;6249985;22;20064;-87
2024/02/13 16:41:00;;;;;;;0.50;0.10;;;8.40;99.90;;;;;;6250646;22;20003;-87
2024/02/13 16:43:29;;;;;;;1.13;0.20;;;8.40;99.90;;;;;;6250543;22;20082;-88
2024/02/13 16:45:55;;;;;;;3.10;0.20;;;8.40;99.90;;;;;;6279673;22;20068;-87
2024/02/13 16:48:22;;;;;;;0.75;0.20;;;8.30;99.90;;;;;;6281197;22;20441;-88
2024/02/13 16:50:47;;;;;;;0.70;0.10;;;8.30;99.90;;;;;;6335227;22;20331;-88
2024/02/13 16:53:14;;;;;;;0.63;0.10;;;8.20;99.90;;;;;;6306605;22;20015;-88
2024/02/13 16:55:40;;;;;;;1.65;0.50;;;8.20;99.90;;;;;;6281153;22;20011;-88
2024/02/13 16:58:08;;;;;;;1.13;0.20;;;8.20;99.90;;;;;;6281090;22;20011;-88
2024/02/13 17:00:35;;;;;;;2.30;0.20;;;8.20;99.90;;;;;;6307451;22;20026;-88
2024/02/13 17:03:04;;;;;;;1.73;0.20;;;8.20;99.90;;;;;;6307039;22;20018;-87
2024/02/13 17:05:31;;;;;;;1.67;0.10;;;8.20;99.90;;;;;;6281301;22;20003;-87
2024/02/13 17:07:57;;;;;;;0.73;0.10;;;8.10;99.90;;;;;;6307436;22;20014;-88
2024/02/13 17:10:23;;;;;;;1.20;0.20;;;8.20;99.90;;;;;;6269726;22;20018;-87
2024/02/13 17:12:49;;;;;;;1.10;0.10;;;8.10;99.90;;;;;;6306469;22;20386;-88
2024/02/13 17:15:15;;;;;;;1.10;0.10;;;8.10;99.90;;;;;;6280847;22;20060;-89
2024/02/13 17:17:41;;;;;;;1.73;0.10;;;8.10;99.90;;;;;;6306066;22;20086;-88
2024/02/13 17:20:10;;;;;;;2.55;0.20;;;8.10;99.90;;;;;;6280975;22;20038;-87
2024/02/13 17:22:37;;;;;;;1.43;0.27;;;8.10;99.90;;;;;;6307656;22;20007;-88
2024/02/13 17:25:10;;;;;;;1.17;0.40;;;8.10;99.90;;;;;;6280205;22;20063;-88
2024/02/13 17:27:37;;;;;;;1.10;0.30;;;8.10;99.90;;;;;;6279870;22;20047;-87
2024/02/13 17:30:04;;;;;;;2.05;0.40;;;8.10;99.90;;;;;;6279604;22;20011;-86
2024/02/13 17:32:30;;;;;;;1.10;0.20;;;8.10;99.90;;;;;;6305444;22;20015;-86
2024/02/13 17:47:27;;;;;;;0.95;0.10;;;8.00;99.90;;;;;;6212501;22;20034;-92
2024/02/13 17:49:53;;;;;;;1.50;0.30;;;8.10;99.90;;;;;;6274540;22;20003;-92
2024/02/13 17:52:18;;;;;;;2.80;0.20;;;8.10;99.90;;;;;;6274546;22;20013;-93
2024/02/13 17:54:44;;;;;;;2.35;0.30;;;8.10;99.90;;;;;;6248870;22;20030;-92
2024/02/13 17:57:10;;;;;;;1.58;0.10;;;8.10;99.90;;;;;;6248961;22;20035;-90
2024/02/13 17:59:36;;;;;;;0.63;0.20;;;8.10;99.90;;;;;;6248661;22;20004;-92
2024/02/13 18:02:03;;;;;;;0.93;0.20;;;8.00;99.90;;;;;;6274936;22;20011;-92
2024/02/13 18:04:29;;;;;;;1.23;0.30;;;8.00;99.90;;;;;;6248754;22;20003;-92
2024/02/13 18:06:55;;;;;;;1.60;0.20;;;8.00;99.90;;;;;;6249487;22;20007;-93
2024/02/13 18:09:21;;;;;;;2.25;0.20;;;8.00;99.90;;;;;;6249117;22;20030;-91
2024/02/13 18:11:47;;;;;;;1.38;0.20;;;8.00;99.90;;;;;;6276464;22;20313;-93
2024/02/13 18:14:13;;;;;;;0.85;0.30;;;8.00;99.90;;;;;;6249768;22;20034;-93
2024/02/13 18:16:40;;;;;;;1.08;0.30;;;7.90;99.90;;;;;;6274586;22;20018;-93
2024/02/13 18:19:07;;;;;;;1.00;0.30;;;8.00;99.90;;;;;;6249397;22;20378;-93
2024/02/13 18:21:33;;;;;;;1.15;0.20;;;7.90;99.90;;;;;;6248996;22;20019;-93
2024/02/13 18:24:00;;;;;;;1.20;0.22;;;7.90;99.90;;;;;;6274875;22;20008;-94
2024/02/13 18:26:26;;;;;;;0.80;0.20;;;7.90;99.90;;;;;;6248897;22;20011;-93
2024/02/13 18:28:54;;;;;;;0.82;0.20;;;7.90;99.90;;;;;;6249324;22;20007;-92
2024/02/13 18:31:20;;;;;;;0.73;0.30;;;7.80;99.90;;;;;;6248783;22;20004;-91
2024/02/13 18:33:46;;;;;;;1.33;0.20;;;7.90;99.90;;;;;;6248674;22;20061;-90
2024/02/13 18:36:11;;;;;;;1.17;0.25;;;7.80;99.90;;;;;;6276105;22;20000;-89
2024/02/13 18:38:37;;;;;;;1.02;0.25;;;7.80;99.90;;;;;;6276249;22;20042;-90
2024/02/13 18:41:05;;;;;;;0.50;0.20;;;7.80;99.90;;;;;;6274404;22;20014;-90
2024/02/13 18:43:31;;;;;;;1.00;0.30;;;7.70;99.90;;;;;;6248983;22;20016;-90
2024/02/13 18:45:56;;;;;;;0.98;0.30;;;7.70;99.90;;;;;;6274290;22;20071;-90
2024/02/13 18:48:25;;;;;;;1.42;0.30;;;7.70;99.90;;;;;;6249071;22;20051;-90
2024/02/13 18:50:51;;;;;;;1.15;0.30;;;7.70;99.90;;;;;;6249178;22;20008;-90
2024/02/13 18:53:22;;;;;;;0.90;0.40;;;7.70;99.90;;;;;;6272409;22;20098;-91
2024/02/13 18:55:49;;;;;;;1.45;0.35;;;7.70;99.90;;;;;;6273165;22;20003;-91
2024/02/13 18:58:16;;;;;;;1.90;0.40;;;7.70;99.90;;;;;;6273157;22;20007;-90
2024/02/13 19:00:43;;;;;;;2.03;0.30;;;7.60;99.90;;;;;;6247053;22;20011;-89
2024/02/13 19:03:09;;;;;;;1.88;0.38;;;7.60;99.90;;;;;;6247700;22;20035;-90
2024/02/13 19:05:35;;;;;;;1.02;0.38;;;7.60;99.90;;;;;;6247733;22;20015;-91
2024/02/13 19:08:01;;;;;;;0.95;0.20;;;7.60;99.90;;;;;;6247550;22;20443;-90
2024/02/13 19:10:27;;;;;;;1.70;0.30;;;7.60;99.90;;;;;;6247408;22;20008;-90
2024/02/13 19:12:54;;;;;;;1.23;0.30;;;7.60;99.90;;;;;;6247369;22;20007;-91
2024/02/13 19:15:20;;;;;;;1.30;0.30;;;7.50;99.90;;;;;;6273262;22;20121;-90
2024/02/13 19:17:46;;;;;;;0.90;0.30;;;7.50;99.90;;;;;;6273018;22;20050;-90
2024/02/13 19:20:14;;;;;;;1.60;0.30;;;7.50;99.90;;;;;;6247188;22;20007;-90
2024/02/13 19:22:40;;;;;;;1.17;0.32;;;7.60;99.90;;;;;;6247395;22;20019;-88
2024/02/13 19:25:06;;;;;;;1.27;0.28;;;7.60;99.90;;;;;;6247369;22;20007;-90
2024/02/13 19:27:32;;;;;;;1.17;0.30;;;7.50;99.90;;;;;;6273722;22;20086;-90
2024/02/13 19:29:59;;;;;;;0.70;0.30;;;7.60;99.90;;;;;;6272612;22;20444;-90
2024/02/13 19:32:25;;;;;;;1.15;0.35;;;7.50;99.90;;;;;;6246449;22;20004;-90
2024/02/13 19:34:51;;;;;;;1.17;0.38;;;7.50;99.90;;;;;;6246905;22;20023;-89
2024/02/13 19:37:16;;;;;;;1.40;0.35;;;7.50;99.90;;;;;;6272823;22;20003;-88
2024/02/13 19:39:42;;;;;;;0.85;0.22;;;7.50;99.90;;;;;;6246967;22;20000;-90
2024/02/13 19:42:08;;;;;;;0.73;0.28;;;7.50;99.90;;;;;;6246330;22;20253;-90
2024/02/13 19:44:34;;;;;;;1.15;0.30;;;7.40;99.90;;;;;;6273365;22;20008;-89
2024/02/13 19:47:00;;;;;;;0.88;0.20;;;7.50;99.90;;;;;;6273075;22;20012;-89
2024/02/13 19:49:26;;;;;;;1.00;0.30;;;7.50;99.90;;;;;;6251791;22;20037;-89
2024/02/13 19:51:51;;;;;;;2.00;0.40;;;7.50;99.90;;;;;;6277485;22;20037;-88
2024/02/13 19:54:17;;;;;;;3.10;0.40;;;7.50;99.90;;;;;;6249709;22;20057;-89
2024/02/13 19:56:44;;;;;;;1.73;0.50;;;7.50;99.90;;;;;;6251126;22;20007;-88
2024/02/13 19:59:25;;;;;;;0.95;0.38;;;7.50;99.90;;;;;;6304554;22;20088;-91
2024/02/13 20:01:51;;;;;;;1.90;0.40;;;7.50;99.90;;;;;;6263578;22;20007;-87
2024/02/13 20:04:17;;;;;;;1.88;0.57;;;7.60;99.90;;;;;;6249484;22;20534;-86
2024/02/13 20:06:43;;;;;;;1.45;0.50;;;7.50;99.90;;;;;;6247368;22;19999;-87